Terminal Aerodrome Forecast
Issued by NWS Shreveport, LA

Home | Current Version | Previous Version | Text Only | Print | Product List | Glossary On
Versions: 1 2 3 4 5 6 7 8 9 10 11 12
929
FTUS44 KSHV 272341
TAFMLU
TAF
KMLU 272341Z 2800/2824 36003KT P6SM FEW070 BKN150 BKN250
     FM280200 VRB03KT P6SM SCT150 SCT250
     FM280500 00000KT P6SM SCT250
     FM281600 26007KT P6SM SKC=

USA.gov is the U.S. government's official web portal to all federal, state and local government web resources and services.